createdAt,value
2017-12-27T00:00:05.354Z,3.2
2017-12-27T00:05:03.058Z,3.2
2017-12-27T00:10:17.919Z,3.2
2017-12-27T00:15:05.507Z,3.1
2017-12-27T00:20:07.885Z,3
2017-12-27T00:25:08.106Z,3
2017-12-27T00:30:09.989Z,2.9
2017-12-27T00:35:02.681Z,2.9
2017-12-27T00:40:04.948Z,2.8
2017-12-27T00:45:20.307Z,2.8
2017-12-27T00:55:12.719Z,2.8
2017-12-27T01:00:10.544Z,2.7
2017-12-27T01:05:05.714Z,2.7
2017-12-27T01:10:22.664Z,2.6
2017-12-27T01:15:17.755Z,2.5
2017-12-27T01:20:18.242Z,2.5
2017-12-27T01:25:36.125Z,2.5
2017-12-27T01:30:15.967Z,2.5
2017-12-27T01:35:05.157Z,2.5
2017-12-27T01:40:10.455Z,2.5
2017-12-27T01:45:03.068Z,2.5
2017-12-27T01:50:03.359Z,2.5
2017-12-27T01:55:05.104Z,2.4
2017-12-27T02:05:05.096Z,2.4
2017-12-27T02:10:02.811Z,2.3
2017-12-27T02:15:03.007Z,2.3
2017-12-27T02:20:08.408Z,2.2
2017-12-27T02:25:02.512Z,2.2
2017-12-27T02:30:12.888Z,2.2
2017-12-27T02:35:02.929Z,2.2
2017-12-27T02:40:05.170Z,2.1
2017-12-27T02:45:05.418Z,2.1
2017-12-27T02:50:07.896Z,2.1
2017-12-27T02:55:05.397Z,2.2
2017-12-27T03:00:05.159Z,2.1
2017-12-27T03:05:05.365Z,2.1
2017-12-27T03:10:18.312Z,2.1
2017-12-27T03:15:03.277Z,2.1
2017-12-27T03:20:20.252Z,2
2017-12-27T03:25:07.833Z,2
2017-12-27T03:30:05.586Z,2.1
2017-12-27T03:35:15.860Z,2
2017-12-27T03:40:15.270Z,2
2017-12-27T03:45:18.015Z,2
2017-12-27T03:50:18.663Z,1.9
2017-12-27T03:55:37.822Z,1.9
2017-12-27T04:00:15.645Z,1.9
2017-12-27T04:05:30.990Z,1.9
2017-12-27T04:10:02.714Z,1.9
2017-12-27T04:15:05.417Z,1.9
2017-12-27T04:20:02.747Z,1.8
2017-12-27T04:25:07.894Z,1.8
2017-12-27T04:30:08.103Z,1.8
2017-12-27T04:35:05.816Z,1.8
2017-12-27T04:40:07.614Z,1.7
2017-12-27T04:45:05.243Z,1.7
2017-12-27T04:50:07.515Z,1.6
2017-12-27T04:55:02.627Z,1.6
2017-12-27T05:00:02.921Z,1.6
2017-12-27T05:05:08.055Z,1.5
2017-12-27T05:10:25.559Z,1.5
2017-12-27T05:15:02.820Z,1.5
2017-12-27T05:20:10.744Z,1.4
2017-12-27T05:25:09.995Z,1.3
2017-12-27T05:30:15.859Z,1.3
2017-12-27T05:35:07.424Z,1.3
2017-12-27T05:40:03.149Z,1.3
2017-12-27T05:45:15.977Z,1.2
2017-12-27T05:50:10.756Z,1.2
2017-12-27T05:55:03.338Z,1.2
2017-12-27T06:00:10.186Z,1.1
2017-12-27T06:05:30.599Z,1.1
2017-12-27T06:10:13.381Z,1
2017-12-27T06:20:05.216Z,1
2017-12-27T06:25:07.908Z,1
2017-12-27T06:30:08.182Z,1
2017-12-27T06:40:15.635Z,0.9
2017-12-27T06:45:03.163Z,0.9
2017-12-27T06:50:25.545Z,0.9
2017-12-27T06:55:10.305Z,0.9
2017-12-27T07:00:05.032Z,0.9
2017-12-27T07:05:07.767Z,0.8
2017-12-27T07:10:10.109Z,0.8
2017-12-27T07:15:12.823Z,0.8
2017-12-27T07:20:08.199Z,0.8
2017-12-27T07:25:03.295Z,0.8
2017-12-27T07:30:10.116Z,0.8
2017-12-27T07:35:02.693Z,0.8
2017-12-27T07:40:30.282Z,0.8
2017-12-27T07:45:07.566Z,0.7
2017-12-27T07:50:10.370Z,0.8
2017-12-27T07:55:05.547Z,0.9
2017-12-27T08:00:07.962Z,1
2017-12-27T08:05:08.027Z,1.1
2017-12-27T08:10:02.683Z,1.1
2017-12-27T08:15:05.424Z,1.2
2017-12-27T08:20:05.300Z,1.2
2017-12-27T08:25:23.167Z,1.4
2017-12-27T08:30:03.365Z,1.4
2017-12-27T08:35:10.105Z,1.6
2017-12-27T08:40:07.840Z,1.8
2017-12-27T08:45:15.584Z,1.9
2017-12-27T08:50:07.851Z,2
2017-12-27T08:55:20.700Z,2.1
2017-12-27T09:00:10.536Z,2.3
2017-12-27T09:05:31.042Z,2.4
2017-12-27T09:10:07.790Z,2.4
2017-12-27T09:15:05.553Z,2.5
2017-12-27T09:20:20.580Z,2.5
2017-12-27T09:25:15.762Z,2.6
2017-12-27T09:30:28.294Z,2.4
2017-12-27T09:35:25.299Z,3
2017-12-27T09:40:15.626Z,3.2
2017-12-27T09:45:03.150Z,3.2
2017-12-27T09:50:22.706Z,3.6
2017-12-27T09:55:17.735Z,3.8
2017-12-27T10:00:05.483Z,4
2017-12-27T10:05:08.241Z,4
2017-12-27T10:10:10.564Z,4.2
2017-12-27T10:20:30.250Z,4.3
2017-12-27T10:25:07.545Z,4.3
2017-12-27T10:30:05.300Z,4.4
2017-12-27T10:35:18.190Z,4.4
2017-12-27T10:40:20.586Z,4.4
2017-12-27T10:45:08.124Z,4.4
2017-12-27T10:50:09.970Z,4.3
2017-12-27T10:55:27.907Z,4.3
2017-12-27T11:00:10.747Z,4.3
2017-12-27T11:05:05.880Z,4.4
2017-12-27T11:10:07.662Z,4.4
2017-12-27T11:15:10.428Z,4.4
2017-12-27T11:20:20.405Z,4.4
2017-12-27T11:25:02.860Z,4.4
2017-12-27T11:30:15.680Z,4.6
2017-12-27T11:35:13.364Z,4.7
2017-12-27T11:40:10.794Z,4.8
2017-12-27T11:45:32.746Z,4.9
2017-12-27T11:50:03.042Z,4.9
2017-12-27T11:55:05.829Z,4.9
2017-12-27T12:00:03.051Z,4.9
2017-12-27T12:10:13.043Z,5
2017-12-27T12:15:38.543Z,5
2017-12-27T12:20:05.390Z,5
2017-12-27T12:25:13.238Z,5.1
2017-12-27T12:30:17.767Z,5
2017-12-27T12:35:07.803Z,5
2017-12-27T12:40:10.148Z,5
2017-12-27T12:45:07.816Z,5
2017-12-27T12:50:08.158Z,5
2017-12-27T13:05:05.348Z,5
2017-12-27T13:10:10.665Z,5
2017-12-27T13:15:05.856Z,5
2017-12-27T13:20:08.178Z,5
2017-12-27T13:25:05.900Z,5
2017-12-27T13:30:08.229Z,5
2017-12-27T13:35:05.779Z,5.1
2017-12-27T13:40:02.551Z,5.1
2017-12-27T13:45:07.905Z,5
2017-12-27T13:50:03.218Z,5
2017-12-27T13:55:04.963Z,5
2017-12-27T14:00:03.311Z,5
2017-12-27T14:10:15.744Z,5
2017-12-27T14:15:10.797Z,4.9
2017-12-27T14:20:13.350Z,4.9
2017-12-27T14:25:12.592Z,4.9
2017-12-27T14:30:02.861Z,4.9
2017-12-27T14:35:23.384Z,4.9
2017-12-27T14:40:33.360Z,4.9
2017-12-27T14:45:07.692Z,4.8
2017-12-27T14:50:30.810Z,4.8
2017-12-27T14:55:10.542Z,4.8
2017-12-27T15:00:07.885Z,4.8
2017-12-27T15:05:18.172Z,4.8
2017-12-27T15:10:10.487Z,4.8
2017-12-27T15:15:08.106Z,4.7
2017-12-27T15:20:02.476Z,4.7
2017-12-27T15:25:05.189Z,4.7
2017-12-27T15:30:30.243Z,4.7
2017-12-27T15:35:10.085Z,4.6
2017-12-27T15:40:28.135Z,4.6
2017-12-27T15:45:09.968Z,4.5
2017-12-27T15:50:05.839Z,4.5
2017-12-27T15:55:10.056Z,4.5
2017-12-27T16:00:05.820Z,4.5
2017-12-27T16:05:17.612Z,4.4
2017-12-27T16:10:08.434Z,4.4
2017-12-27T16:20:07.885Z,4.4
2017-12-27T16:25:05.586Z,4.4
2017-12-27T16:30:10.451Z,4.3
2017-12-27T16:35:25.815Z,4.3
2017-12-27T16:40:10.142Z,4.3
2017-12-27T16:45:12.941Z,4.3
2017-12-27T16:50:26.052Z,4.3
2017-12-27T16:55:03.340Z,4.3
2017-12-27T17:00:17.694Z,4.2
2017-12-27T17:05:02.659Z,4.2
2017-12-27T17:10:21.141Z,4
2017-12-27T17:15:05.167Z,3.9
2017-12-27T17:20:25.229Z,3.8
2017-12-27T17:25:20.233Z,3.8
2017-12-27T17:30:35.348Z,3.7
2017-12-27T17:35:05.112Z,3.7
2017-12-27T17:40:07.942Z,3.7
2017-12-27T17:45:05.618Z,3.7
2017-12-27T17:50:05.466Z,3.6
2017-12-27T17:55:03.088Z,3.6
2017-12-27T18:00:33.678Z,3.6
2017-12-27T18:05:30.685Z,3.6
2017-12-27T18:20:02.750Z,3.5
2017-12-27T18:25:02.939Z,3.5
2017-12-27T18:30:18.438Z,3.5
2017-12-27T18:35:20.103Z,3.5
2017-12-27T18:40:20.569Z,3.5
2017-12-27T18:45:05.577Z,3.5
2017-12-27T18:50:02.763Z,3.4
2017-12-27T18:55:08.105Z,3.3
2017-12-27T19:00:10.994Z,3.2
2017-12-27T19:05:05.107Z,3.2
2017-12-27T19:10:25.569Z,3.1
2017-12-27T19:15:07.833Z,3.1
2017-12-27T19:20:13.358Z,3
2017-12-27T19:25:02.406Z,3
2017-12-27T19:30:15.360Z,2.9
2017-12-27T19:35:05.635Z,2.9
2017-12-27T19:40:18.496Z,2.8
2017-12-27T19:45:15.140Z,2.8
2017-12-27T19:50:32.772Z,2.8
2017-12-27T19:55:02.957Z,2.8
2017-12-27T20:00:05.756Z,2.8
2017-12-27T20:05:17.573Z,2.8
2017-12-27T20:10:21.010Z,2.8
2017-12-27T20:15:22.686Z,2.8
2017-12-27T20:20:03.020Z,2.8
2017-12-27T20:25:05.747Z,2.7
2017-12-27T20:30:35.810Z,2.8
2017-12-27T20:35:20.735Z,2.7
2017-12-27T20:45:05.209Z,2.7
2017-12-27T20:50:02.450Z,2.7
2017-12-27T20:55:20.286Z,2.6
2017-12-27T21:00:05.076Z,2.6
2017-12-27T21:05:22.950Z,2.5
2017-12-27T21:10:05.207Z,2.6
2017-12-27T21:15:10.584Z,2.5
2017-12-27T21:20:12.987Z,2.4
2017-12-27T21:25:08.173Z,2.4
2017-12-27T21:30:10.013Z,2.3
2017-12-27T21:40:05.860Z,2.2
2017-12-27T21:45:02.446Z,2.2
2017-12-27T21:50:05.194Z,2.2
2017-12-27T21:55:02.917Z,2.2
2017-12-27T22:05:10.834Z,2.1
2017-12-27T22:10:27.784Z,2.1
2017-12-27T22:15:30.805Z,2
2017-12-27T22:20:08.211Z,2
2017-12-27T22:25:08.348Z,2.1
2017-12-27T22:30:27.814Z,2.1
2017-12-27T22:35:05.531Z,2.1
2017-12-27T22:40:18.407Z,2
2017-12-27T22:50:10.149Z,2.1
2017-12-27T22:55:30.589Z,2.1
2017-12-27T23:00:10.454Z,2.1
2017-12-27T23:05:05.589Z,2.2
2017-12-27T23:10:10.255Z,2.2
2017-12-27T23:15:07.874Z,2.3
2017-12-27T23:20:33.673Z,2.2
2017-12-27T23:25:20.588Z,2.2
2017-12-27T23:30:07.949Z,2.1
2017-12-27T23:35:05.577Z,2
2017-12-27T23:40:31.114Z,2
2017-12-27T23:45:05.868Z,2
2017-12-27T23:50:03.091Z,1.9
2017-12-27T23:55:15.960Z,1.9
